ESPA/LLA METAR and TAF weather

Enter ICAO airport designator
Station Type Date Time Source
ESPA METAR 2022/06/25 22:20 UTC NOAA

ESPA 252220Z AUTO 15003KT 9999 NCD 15/14 Q1015


Station Type Date Time Source
ESPA Decoded METAR 2022/06/25 22:20 UTC NOAA

Lulea / Kallax, Sweden (ESPA) 65-33N 022-08E 34M
Jun 25, 2022 - 06:20 PM EDT / 2022.06.25 2220 UTC
Wind: from the SSE (150 degrees) at 3 MPH (3 KT):0
Visibility: greater than 7 mile(s):0
Temperature: 59 F (15 C)
Dew Point: 57 F (14 C)
Relative Humidity: 93%
Pressure (altimeter): 29.97 in. Hg (1015 hPa)
ob: ESPA 252220Z AUTO 15003KT 9999 NCD 15/14 Q1015
cycle: 22

Station Type Date Time Source
ESPA TAF 2019/02/04 06:27 UTC NOAA

TAF TAF ESPA 040820Z 0406/0418 01010KT 2000 SN VV020
TEMPO 0409/0414 1000 +SN DRSN VV009
BECMG 0414/0416 32010KT 5000 -SN VV030
RMK MIL

Example: see airport list